createdAt,value
2023-05-01T00:03:12.352Z,17.50
2023-05-01T00:08:17.538Z,17.67
2023-05-01T00:13:24.448Z,18.00
2023-05-01T00:18:31.681Z,25.50
2023-05-01T00:23:37.106Z,22.25
2023-05-01T00:28:42.105Z,22.75
2023-05-01T00:33:47.611Z,20.00
2023-05-01T00:43:57.237Z,21.50
2023-05-01T00:49:02.684Z,19.33
2023-05-01T00:54:08.302Z,18.75
2023-05-01T00:59:13.511Z,22.25
2023-05-01T01:04:18.640Z,17.00
2023-05-01T01:09:30.385Z,15.00
2023-05-01T01:15:06.319Z,19.25
2023-05-01T01:20:32.572Z,18.00
2023-05-01T01:26:01.410Z,17.00
2023-05-01T01:31:13.381Z,35.75
2023-05-01T01:36:22.786Z,18.50
2023-05-01T01:41:34.893Z,18.00
2023-05-01T01:46:43.929Z,22.00
2023-05-01T01:51:50.525Z,24.00
2023-05-01T01:56:56.959Z,29.75
2023-05-01T02:02:04.827Z,23.25
2023-05-01T02:07:13.056Z,19.33
2023-05-01T02:12:20.658Z,26.00
2023-05-01T02:17:25.911Z,17.67
2023-05-01T02:22:32.226Z,22.67
2023-05-01T02:27:52.252Z,26.25
2023-05-01T02:32:59.133Z,23.25
2023-05-01T02:38:04.141Z,27.33
2023-05-01T02:43:15.945Z,28.75
2023-05-01T02:48:27.527Z,24.75
2023-05-01T02:53:33.975Z,26.00
2023-05-01T02:58:47.490Z,20.75
2023-05-01T03:03:53.144Z,29.25
2023-05-01T03:08:58.097Z,37.50
2023-05-01T03:14:03.686Z,34.75
2023-05-01T03:19:08.932Z,29.25
2023-05-01T03:24:13.961Z,33.75
2023-05-01T03:29:18.914Z,39.67
2023-05-01T03:39:29.687Z,40.00
2023-05-01T03:45:15.094Z,30.75
2023-05-01T03:50:20.508Z,31.33
2023-05-01T03:55:28.367Z,32.25
2023-05-01T04:00:34.734Z,37.25
2023-05-01T04:05:40.716Z,42.00
2023-05-01T04:10:46.765Z,37.75
2023-05-01T04:15:52.398Z,34.75
2023-05-01T04:20:57.818Z,37.33
2023-05-01T04:26:03.632Z,31.00
2023-05-01T04:31:09.531Z,39.50
2023-05-01T04:36:15.444Z,38.25
2023-05-01T04:41:22.844Z,38.25
2023-05-01T04:46:28.410Z,40.00
2023-05-01T04:51:34.798Z,38.25
2023-05-01T04:56:41.086Z,36.50
2023-05-01T05:01:46.775Z,38.75
2023-05-01T05:06:52.734Z,33.00
2023-05-01T05:12:08.313Z,37.00
2023-05-01T05:17:14.526Z,38.00
2023-05-01T05:22:20.522Z,41.75
2023-05-01T05:27:52.182Z,42.00
2023-05-01T05:32:57.665Z,46.67
2023-05-01T05:38:03.487Z,36.25
2023-05-01T05:43:12.677Z,38.67
2023-05-01T05:48:18.673Z,39.00
2023-05-01T05:53:25.908Z,39.00
2023-05-01T05:58:32.678Z,39.00
2023-05-01T06:03:39.193Z,42.50
2023-05-01T06:08:47.039Z,40.50
2023-05-01T06:13:52.911Z,45.67
2023-05-01T06:18:58.734Z,42.33
2023-05-01T06:24:04.345Z,41.75
2023-05-01T06:29:24.564Z,46.33
2023-05-01T06:34:31.026Z,42.33
2023-05-01T06:39:37.560Z,48.00
2023-05-01T06:44:43.781Z,41.25
2023-05-01T06:49:50.015Z,41.25
2023-05-01T06:54:55.553Z,42.33
2023-05-01T07:00:01.193Z,42.25
2023-05-01T07:05:06.892Z,43.75
2023-05-01T07:10:13.805Z,46.50
2023-05-01T07:15:19.693Z,45.67
2023-05-01T07:20:26.332Z,41.75
2023-05-01T07:25:32.597Z,41.50
2023-05-01T07:30:41.368Z,42.25
2023-05-01T07:35:46.775Z,39.00
2023-05-01T07:40:55.581Z,42.25
2023-05-01T07:46:03.671Z,40.67
2023-05-01T07:51:09.375Z,42.25
2023-05-01T07:56:14.848Z,48.00
2023-05-01T08:01:20.616Z,46.00
2023-05-01T08:06:26.167Z,46.67
2023-05-01T08:11:31.547Z,42.00
2023-05-01T08:16:38.074Z,43.33
2023-05-01T08:21:43.781Z,44.75
2023-05-01T08:26:50.382Z,42.00
2023-05-01T08:31:58.314Z,44.50
2023-05-01T08:37:04.044Z,45.75
2023-05-01T08:42:10.491Z,44.25
2023-05-01T08:47:22.050Z,43.75
2023-05-01T08:52:30.917Z,49.00
2023-05-01T08:57:38.770Z,42.00
2023-05-01T09:02:46.272Z,42.33
2023-05-01T09:07:51.469Z,48.33
2023-05-01T09:13:02.915Z,46.25
2023-05-01T09:18:10.225Z,42.75
2023-05-01T09:23:15.699Z,45.00
2023-05-01T09:28:20.780Z,45.75
2023-05-01T09:33:26.368Z,47.75
2023-05-01T09:38:31.778Z,41.50
2023-05-01T09:43:36.665Z,45.50
2023-05-01T09:48:41.693Z,48.00
2023-05-01T09:53:47.129Z,48.00
2023-05-01T09:58:56.670Z,45.50
2023-05-01T10:04:01.578Z,46.50
2023-05-01T10:09:18.434Z,47.33
2023-05-01T10:14:25.213Z,49.00
2023-05-01T10:19:30.142Z,45.67
2023-05-01T10:24:35.072Z,45.00
2023-05-01T10:29:42.125Z,48.00
2023-05-01T10:34:56.921Z,47.50
2023-05-01T10:40:02.118Z,47.00
2023-05-01T10:45:42.465Z,47.00
2023-05-01T10:51:16.112Z,49.67
2023-05-01T10:56:28.259Z,47.67
2023-05-01T11:07:12.466Z,45.33
2023-05-01T11:12:38.274Z,43.67
2023-05-01T11:17:43.532Z,46.00
2023-05-01T11:22:48.752Z,47.25
2023-05-01T11:27:55.753Z,46.67
2023-05-01T11:33:00.829Z,50.00
2023-05-01T11:38:05.868Z,47.50
2023-05-01T11:43:11.205Z,47.00
2023-05-01T11:48:19.397Z,43.33
2023-05-01T11:53:25.514Z,43.00
2023-05-01T11:58:35.431Z,45.00
2023-05-01T12:03:44.969Z,43.00
2023-05-01T12:08:52.868Z,41.75
2023-05-01T12:13:58.152Z,43.50
2023-05-01T12:19:05.153Z,44.00
2023-05-01T12:24:17.484Z,42.00
2023-05-01T12:29:22.641Z,47.33
2023-05-01T12:39:47.869Z,44.00
2023-05-01T12:45:03.972Z,42.33
2023-05-01T12:50:10.160Z,42.33
2023-05-01T12:55:15.610Z,45.25
2023-05-01T13:00:22.151Z,45.00
2023-05-01T13:05:28.867Z,46.50
2023-05-01T13:10:35.452Z,47.25
2023-05-01T13:15:41.302Z,42.50
2023-05-01T13:20:46.483Z,42.00
2023-05-01T13:26:01.605Z,42.00
2023-05-01T13:31:16.435Z,43.50
2023-05-01T13:36:26.115Z,44.67
2023-05-01T13:41:33.038Z,43.50
2023-05-01T13:51:52.850Z,43.33
2023-05-01T13:57:00.093Z,40.00
2023-05-01T14:02:26.621Z,42.00
2023-05-01T14:07:32.432Z,49.00
2023-05-01T14:12:37.721Z,47.50
2023-05-01T14:17:43.089Z,48.33
2023-05-01T14:22:53.195Z,44.50
2023-05-01T14:28:01.162Z,44.67
2023-05-01T14:33:12.703Z,40.50
2023-05-01T14:43:32.298Z,44.33
2023-05-01T14:48:38.647Z,42.50
2023-05-01T14:53:47.413Z,46.00
2023-05-01T14:58:53.975Z,46.33
2023-05-01T15:04:03.584Z,38.33
2023-05-01T15:09:09.444Z,44.50
2023-05-01T15:24:42.084Z,48.00
2023-05-01T15:29:47.443Z,50.00
2023-05-01T15:34:57.815Z,44.33
2023-05-01T15:40:03.385Z,43.50
2023-05-01T15:45:10.636Z,48.00
2023-05-01T15:50:18.081Z,47.00
2023-05-01T15:55:24.612Z,44.00
2023-05-01T16:00:30.692Z,42.00
2023-05-01T16:05:37.301Z,42.67
2023-05-01T16:10:45.336Z,42.00
2023-05-01T16:15:51.044Z,41.75
2023-05-01T16:20:56.956Z,48.50
2023-05-01T16:26:03.474Z,43.67
2023-05-01T16:31:23.369Z,45.00
2023-05-01T16:36:31.245Z,44.50
2023-05-01T16:41:46.671Z,47.50
2023-05-01T16:46:57.092Z,41.00
2023-05-01T16:52:03.999Z,40.75
2023-05-01T16:57:09.710Z,42.00
2023-05-01T17:02:16.237Z,48.33
2023-05-01T17:07:23.059Z,44.75
2023-05-01T17:12:29.187Z,43.00
2023-05-01T17:17:34.521Z,43.00
2023-05-01T17:22:39.491Z,41.75
2023-05-01T17:27:44.920Z,48.25
2023-05-01T17:32:50.354Z,38.00
2023-05-01T17:37:57.062Z,38.00
2023-05-01T17:43:02.780Z,42.00
2023-05-01T17:48:08.248Z,38.25
2023-05-01T17:53:13.350Z,43.00
2023-05-01T17:58:18.875Z,41.00
2023-05-01T18:03:24.075Z,40.00
2023-05-01T18:08:29.365Z,44.00
2023-05-01T18:13:39.505Z,33.67
2023-05-01T18:18:44.836Z,38.67
2023-05-01T18:23:50.430Z,44.33
2023-05-01T18:28:55.741Z,37.67
2023-05-01T18:34:01.008Z,38.33
2023-05-01T18:39:06.713Z,49.33
2023-05-01T18:44:11.695Z,38.00
2023-05-01T18:54:21.482Z,41.33
2023-05-01T19:04:49.389Z,43.50
2023-05-01T19:10:02.252Z,36.50
2023-05-01T19:15:08.415Z,39.00
2023-05-01T19:20:14.104Z,39.50
2023-05-01T19:25:20.706Z,41.67
2023-05-01T19:30:26.335Z,44.00
2023-05-01T19:35:32.102Z,49.25
2023-05-01T19:40:38.429Z,46.67
2023-05-01T19:45:45.030Z,47.67
2023-05-01T19:50:53.065Z,31.33
2023-05-01T19:55:58.794Z,43.75
2023-05-01T20:01:06.383Z,41.00
2023-05-01T20:11:17.019Z,41.25
2023-05-01T20:16:23.038Z,36.50
2023-05-01T20:21:28.634Z,40.67
2023-05-01T20:26:34.235Z,34.50
2023-05-01T20:31:40.375Z,42.75
2023-05-01T20:36:45.817Z,42.75
2023-05-01T20:41:51.427Z,45.00
2023-05-01T20:46:56.714Z,39.50
2023-05-01T20:52:02.200Z,37.50
2023-05-01T20:57:07.694Z,39.75
2023-05-01T21:02:13.264Z,43.50
2023-05-01T21:07:18.798Z,43.33
2023-05-01T21:12:24.733Z,41.50
2023-05-01T21:17:36.100Z,46.00
2023-05-01T21:22:43.523Z,44.50
2023-05-01T21:27:49.630Z,41.75
2023-05-01T21:32:54.892Z,40.50
2023-05-01T21:38:00.828Z,43.67
2023-05-01T21:43:08.181Z,42.00
2023-05-01T21:48:20.604Z,47.33
2023-05-01T21:53:26.564Z,42.00
2023-05-01T21:58:33.622Z,44.33
2023-05-01T22:03:42.742Z,40.50
2023-05-01T22:08:48.684Z,42.25
2023-05-01T22:13:54.501Z,39.00
2023-05-01T22:19:00.988Z,38.50
2023-05-01T22:24:07.897Z,31.50
2023-05-01T22:29:13.416Z,47.00
2023-05-01T22:34:19.083Z,33.00
2023-05-01T22:39:26.409Z,46.33
2023-05-01T22:44:34.790Z,44.75
2023-05-01T22:49:40.242Z,40.25
2023-05-01T22:54:45.296Z,33.00
2023-05-01T22:59:51.085Z,39.33
2023-05-01T23:04:56.835Z,36.25
2023-05-01T23:10:03.381Z,38.33
2023-05-01T23:15:13.465Z,38.00
2023-05-01T23:20:26.414Z,38.50
2023-05-01T23:25:31.816Z,42.00
2023-05-01T23:30:37.492Z,46.50
2023-05-01T23:35:42.976Z,40.00
2023-05-01T23:40:48.627Z,48.00
2023-05-01T23:45:54.516Z,44.00
2023-05-01T23:51:00.231Z,36.67
2023-05-01T23:56:05.605Z,41.50
